createdAt,value
2019-02-09T00:00:36.316Z,36.27
2019-02-09T00:03:08.469Z,41.97
2019-02-09T00:05:39.377Z,34.07
2019-02-09T00:08:11.215Z,44.90
2019-02-09T00:10:42.121Z,53.90
2019-02-09T00:13:13.052Z,38.17
2019-02-09T00:15:44.255Z,39.80
2019-02-09T00:18:15.249Z,29.00
2019-02-09T00:20:46.162Z,32.30
2019-02-09T00:23:17.099Z,25.83
2019-02-09T00:25:48.010Z,26.47
2019-02-09T00:28:18.944Z,26.87
2019-02-09T00:30:49.843Z,23.27
2019-02-09T00:33:20.800Z,21.83
2019-02-09T00:35:51.708Z,25.27
2019-02-09T00:38:22.650Z,28.93
2019-02-09T00:40:53.562Z,34.87
2019-02-09T00:43:24.499Z,31.20
2019-02-09T00:45:55.395Z,23.10
2019-02-09T00:48:26.352Z,25.27
2019-02-09T00:50:57.259Z,19.53
2019-02-09T00:53:28.231Z,21.33
2019-02-09T00:55:59.138Z,30.17
2019-02-09T00:58:30.079Z,27.13
2019-02-09T01:01:01.787Z,20.40
2019-02-09T01:03:32.750Z,19.17
2019-02-09T01:06:03.664Z,28.77
2019-02-09T01:08:34.596Z,30.03
2019-02-09T01:11:05.571Z,23.40
2019-02-09T01:13:36.494Z,22.70
2019-02-09T01:16:07.413Z,22.57
2019-02-09T01:18:38.352Z,19.23
2019-02-09T01:21:09.260Z,21.50
2019-02-09T01:23:40.224Z,17.17
2019-02-09T01:26:14.570Z,19.20
2019-02-09T01:28:45.513Z,21.23
2019-02-09T01:31:16.395Z,18.67
2019-02-09T01:33:47.347Z,17.80
2019-02-09T01:36:18.256Z,18.80
2019-02-09T01:38:49.764Z,16.50
2019-02-09T01:41:20.680Z,17.07
2019-02-09T01:43:51.618Z,15.87
2019-02-09T01:46:22.512Z,15.70
2019-02-09T01:48:53.481Z,18.60
2019-02-09T01:51:24.385Z,13.63
2019-02-09T01:53:55.312Z,16.87
2019-02-09T01:56:26.200Z,18.53
2019-02-09T01:58:57.138Z,19.10
2019-02-09T02:01:28.802Z,20.93
2019-02-09T02:03:59.749Z,19.27
2019-02-09T02:06:30.723Z,17.70
2019-02-09T02:09:01.737Z,15.53
2019-02-09T02:11:32.638Z,11.27
2019-02-09T02:14:03.559Z,17.43
2019-02-09T02:16:34.470Z,14.20
2019-02-09T02:19:05.423Z,19.07
2019-02-09T02:21:36.305Z,17.60
2019-02-09T02:24:07.250Z,18.47
2019-02-09T02:26:38.136Z,19.47
2019-02-09T02:29:09.060Z,15.57
2019-02-09T02:31:39.973Z,18.10
2019-02-09T02:34:10.943Z,16.87
2019-02-09T02:36:41.843Z,17.00
2019-02-09T02:39:12.778Z,16.53
2019-02-09T02:41:43.674Z,16.60
2019-02-09T02:44:14.610Z,17.67
2019-02-09T02:46:45.505Z,15.13
2019-02-09T02:49:16.462Z,16.97
2019-02-09T02:51:47.367Z,17.50
2019-02-09T02:54:18.297Z,17.37
2019-02-09T02:56:49.191Z,13.97
2019-02-09T02:59:20.156Z,16.67
2019-02-09T03:01:51.850Z,16.73
2019-02-09T03:04:22.818Z,14.67
2019-02-09T03:06:53.711Z,15.87
2019-02-09T03:09:24.723Z,17.13
2019-02-09T03:11:55.635Z,15.23
2019-02-09T03:14:26.633Z,17.30
2019-02-09T03:16:57.529Z,17.30
2019-02-09T03:19:28.505Z,16.03
2019-02-09T03:21:59.408Z,19.20
2019-02-09T03:24:30.337Z,21.97
2019-02-09T03:27:01.235Z,19.47
2019-02-09T03:29:32.199Z,19.70
2019-02-09T03:32:03.105Z,16.73
2019-02-09T03:34:34.061Z,17.90
2019-02-09T03:37:04.958Z,17.27
2019-02-09T03:39:35.894Z,17.30
2019-02-09T03:42:06.897Z,22.27
2019-02-09T03:44:37.840Z,18.70
2019-02-09T03:47:08.748Z,15.40
2019-02-09T03:49:39.897Z,24.07
2019-02-09T03:52:10.809Z,27.13
2019-02-09T03:54:41.733Z,20.70
2019-02-09T03:57:12.640Z,16.97
2019-02-09T03:59:43.572Z,19.33
2019-02-09T04:02:14.477Z,20.77
2019-02-09T04:04:45.444Z,20.50
2019-02-09T04:07:16.422Z,20.47
2019-02-09T04:09:47.348Z,23.73
2019-02-09T04:12:18.248Z,17.93
2019-02-09T04:14:49.195Z,18.30
2019-02-09T04:17:20.097Z,17.97
2019-02-09T04:19:51.028Z,21.00
2019-02-09T04:22:21.941Z,18.73
2019-02-09T04:24:52.877Z,18.83
2019-02-09T04:27:24.289Z,21.57
2019-02-09T04:29:55.227Z,20.03
2019-02-09T04:32:26.135Z,19.63
2019-02-09T04:34:57.084Z,18.23
2019-02-09T04:37:27.993Z,17.50
2019-02-09T04:39:58.910Z,19.57
2019-02-09T04:42:29.815Z,16.17
2019-02-09T04:45:00.824Z,20.20
2019-02-09T04:47:31.729Z,20.43
2019-02-09T04:50:02.793Z,19.00
2019-02-09T04:52:33.694Z,19.40
2019-02-09T04:55:06.877Z,22.03
2019-02-09T04:57:37.773Z,19.27
2019-02-09T05:00:17.366Z,17.20
2019-02-09T05:02:48.364Z,18.23
2019-02-09T05:05:19.401Z,23.53
2019-02-09T05:07:50.412Z,18.67
2019-02-09T05:10:22.949Z,16.67
2019-02-09T05:12:53.845Z,17.10
2019-02-09T05:15:24.777Z,16.23
2019-02-09T05:17:55.699Z,18.70
2019-02-09T05:20:26.663Z,18.40
2019-02-09T05:22:57.570Z,18.23
2019-02-09T05:25:28.643Z,15.67
2019-02-09T05:27:59.548Z,16.23
2019-02-09T05:30:31.073Z,14.73
2019-02-09T05:33:01.985Z,17.33
2019-02-09T05:35:32.936Z,13.80
2019-02-09T05:38:03.833Z,14.70
2019-02-09T05:40:35.845Z,14.20
2019-02-09T05:43:06.746Z,15.17
2019-02-09T05:45:37.699Z,12.87
2019-02-09T05:48:08.610Z,12.60
2019-02-09T05:50:39.545Z,19.17
2019-02-09T05:53:10.512Z,12.47
2019-02-09T05:55:41.445Z,18.47
2019-02-09T05:58:12.335Z,10.80
2019-02-09T06:00:45.038Z,11.27
2019-02-09T06:03:16.002Z,11.90
2019-02-09T06:05:46.955Z,10.37
2019-02-09T06:08:17.852Z,9.97
2019-02-09T06:10:48.767Z,11.70
2019-02-09T06:13:19.667Z,13.70
2019-02-09T06:15:50.592Z,14.27
2019-02-09T06:18:21.490Z,10.33
2019-02-09T06:20:52.427Z,9.53
2019-02-09T06:23:23.319Z,12.83
2019-02-09T06:25:54.266Z,14.17
2019-02-09T06:28:25.145Z,11.17
2019-02-09T06:30:56.067Z,12.70
2019-02-09T06:33:26.974Z,11.37
2019-02-09T06:35:57.944Z,14.10
2019-02-09T06:38:28.838Z,11.80
2019-02-09T06:40:59.763Z,11.77
2019-02-09T06:43:30.666Z,12.63
2019-02-09T06:46:01.583Z,15.00
2019-02-09T06:48:32.474Z,12.10
2019-02-09T06:51:04.032Z,15.50
2019-02-09T06:53:34.947Z,14.57
2019-02-09T06:56:06.066Z,11.30
2019-02-09T06:58:36.979Z,10.93
2019-02-09T07:01:07.966Z,12.73
2019-02-09T07:03:38.869Z,12.47
2019-02-09T07:06:09.815Z,14.53
2019-02-09T07:08:40.705Z,15.23
2019-02-09T07:11:11.639Z,16.27
2019-02-09T07:13:42.540Z,12.47
2019-02-09T07:16:13.461Z,13.83
2019-02-09T07:18:44.361Z,15.53
2019-02-09T07:21:15.315Z,16.43
2019-02-09T07:23:46.219Z,17.50
2019-02-09T07:26:17.152Z,15.87
2019-02-09T07:28:48.050Z,13.53
2019-02-09T07:31:18.979Z,12.83
2019-02-09T07:33:49.873Z,16.13
2019-02-09T07:36:20.863Z,17.77
2019-02-09T07:38:51.759Z,17.00
2019-02-09T07:41:22.691Z,18.63
2019-02-09T07:43:53.596Z,15.00
2019-02-09T07:46:24.543Z,16.80
2019-02-09T07:48:55.452Z,18.93
2019-02-09T07:51:26.425Z,20.87
2019-02-09T07:53:57.337Z,16.43
2019-02-09T07:56:28.269Z,19.20
2019-02-09T07:58:59.176Z,19.13
2019-02-09T08:01:30.101Z,20.30
2019-02-09T08:04:01.013Z,20.87
2019-02-09T08:06:31.977Z,17.77
2019-02-09T08:09:04.749Z,18.17
2019-02-09T08:11:35.685Z,20.70
2019-02-09T08:14:06.579Z,18.00
2019-02-09T08:16:37.516Z,18.27
2019-02-09T08:19:08.425Z,16.20
2019-02-09T08:21:39.416Z,22.37
2019-02-09T08:24:10.347Z,20.77
2019-02-09T08:26:41.287Z,16.63
2019-02-09T08:29:12.197Z,19.80
2019-02-09T08:31:43.122Z,16.33
2019-02-09T08:34:14.023Z,20.83
2019-02-09T08:36:44.990Z,16.10
2019-02-09T08:39:15.890Z,23.83
2019-02-09T08:41:46.823Z,19.60
2019-02-09T08:44:17.808Z,21.20
2019-02-09T08:46:48.736Z,18.53
2019-02-09T08:49:19.642Z,19.33
2019-02-09T08:51:50.592Z,21.17
2019-02-09T08:54:21.486Z,18.43
2019-02-09T08:56:52.424Z,17.57
2019-02-09T08:59:23.328Z,18.30
2019-02-09T09:01:54.268Z,18.27
2019-02-09T09:04:26.102Z,17.97
2019-02-09T09:06:57.167Z,19.67
2019-02-09T09:09:28.087Z,19.37
2019-02-09T09:11:59.022Z,21.27
2019-02-09T09:14:29.933Z,18.93
2019-02-09T09:17:00.871Z,22.27
2019-02-09T09:19:31.771Z,21.07
2019-02-09T09:22:02.817Z,22.40
2019-02-09T09:24:33.721Z,23.73
2019-02-09T09:27:04.771Z,21.17
2019-02-09T09:29:35.678Z,27.10
2019-02-09T09:32:06.618Z,31.97
2019-02-09T09:34:37.522Z,23.03
2019-02-09T09:37:08.477Z,33.57
2019-02-09T09:39:39.381Z,35.10
2019-02-09T09:42:10.320Z,64.10
2019-02-09T09:44:41.246Z,148.60
2019-02-09T09:47:12.290Z,36.07
2019-02-09T09:49:43.184Z,42.33
2019-02-09T09:52:14.142Z,29.43
2019-02-09T09:54:45.041Z,31.47
2019-02-09T09:57:15.977Z,26.50
2019-02-09T09:59:46.896Z,28.53
2019-02-09T10:02:17.842Z,29.70
2019-02-09T10:04:48.740Z,28.60
2019-02-09T10:07:19.687Z,26.90
2019-02-09T10:09:50.603Z,27.20
2019-02-09T10:12:21.539Z,25.07
2019-02-09T10:14:52.432Z,30.43
2019-02-09T10:17:23.364Z,24.70
2019-02-09T10:19:54.262Z,25.33
2019-02-09T10:22:25.224Z,26.60
2019-02-09T10:24:56.144Z,26.50
2019-02-09T10:27:27.073Z,30.93
2019-02-09T10:29:57.986Z,23.17
2019-02-09T10:32:28.844Z,26.17
2019-02-09T10:34:59.836Z,23.57
2019-02-09T10:37:30.836Z,23.80
2019-02-09T10:40:01.782Z,23.17
2019-02-09T10:42:32.753Z,29.70
2019-02-09T10:45:05.476Z,18.67
2019-02-09T10:47:36.449Z,24.17
2019-02-09T10:50:16.320Z,22.00
2019-02-09T10:52:47.267Z,24.03
2019-02-09T10:55:18.173Z,20.43
2019-02-09T10:57:50.601Z,21.33
2019-02-09T11:00:38.830Z,29.53
2019-02-09T11:03:09.956Z,23.03
2019-02-09T11:05:41.042Z,26.70
2019-02-09T11:08:12.045Z,21.90
2019-02-09T11:10:42.951Z,19.90
2019-02-09T11:13:13.873Z,26.17
2019-02-09T11:15:44.783Z,26.33
2019-02-09T11:18:15.723Z,22.57
2019-02-09T11:20:46.630Z,25.37
2019-02-09T11:23:17.584Z,20.23
2019-02-09T11:25:48.486Z,21.93
2019-02-09T11:28:19.422Z,28.07
2019-02-09T11:30:50.329Z,24.30
2019-02-09T11:33:22.040Z,22.77
2019-02-09T11:35:52.954Z,36.50
2019-02-09T11:38:23.963Z,24.33
2019-02-09T11:40:54.850Z,34.97
2019-02-09T11:43:25.848Z,39.97
2019-02-09T11:45:56.759Z,82.80
2019-02-09T11:48:28.501Z,65.23
2019-02-09T11:50:59.407Z,65.10
2019-02-09T11:53:30.365Z,48.43
2019-02-09T11:56:01.333Z,32.10
2019-02-09T11:58:32.277Z,131.83
2019-02-09T12:01:03.256Z,64.83
2019-02-09T12:03:34.180Z,28.00
2019-02-09T12:06:06.060Z,22.20
2019-02-09T12:08:37.022Z,29.07
2019-02-09T12:11:07.922Z,30.30
2019-02-09T12:13:38.942Z,45.93
2019-02-09T12:16:09.844Z,31.07
2019-02-09T12:18:40.780Z,24.97
2019-02-09T12:21:11.681Z,50.30
2019-02-09T12:23:42.851Z,36.67
2019-02-09T12:26:13.754Z,36.43
2019-02-09T12:28:44.698Z,38.00
2019-02-09T12:31:15.602Z,32.73
2019-02-09T12:33:46.541Z,35.03
2019-02-09T12:36:17.451Z,35.73
2019-02-09T12:38:48.415Z,50.77
2019-02-09T12:41:19.325Z,38.73
2019-02-09T12:43:50.268Z,31.80
2019-02-09T12:46:21.227Z,21.93
2019-02-09T12:48:52.150Z,39.03
2019-02-09T12:51:23.066Z,39.27
2019-02-09T12:53:54.015Z,59.07
2019-02-09T12:56:24.913Z,41.23
2019-02-09T12:58:55.943Z,26.93
2019-02-09T13:01:27.018Z,24.17
2019-02-09T13:03:57.947Z,33.20
2019-02-09T13:06:29.688Z,38.03
2019-02-09T13:09:00.637Z,23.93
2019-02-09T13:11:31.543Z,53.00
2019-02-09T13:14:02.479Z,93.90
2019-02-09T13:16:33.387Z,64.63
2019-02-09T13:19:04.637Z,30.73
2019-02-09T13:21:35.551Z,46.33
2019-02-09T13:24:06.627Z,115.60
2019-02-09T13:26:37.562Z,104.10
2019-02-09T13:29:08.496Z,54.37
2019-02-09T13:31:39.398Z,62.37
2019-02-09T13:34:10.344Z,27.27
2019-02-09T13:36:41.260Z,27.00
2019-02-09T13:39:12.208Z,26.33
2019-02-09T13:41:43.114Z,34.00
2019-02-09T13:44:14.118Z,36.03
2019-02-09T13:46:45.033Z,21.23
2019-02-09T13:49:15.956Z,21.27
2019-02-09T13:51:46.868Z,19.20
2019-02-09T13:54:17.806Z,18.40
2019-02-09T13:56:48.780Z,14.57
2019-02-09T13:59:19.728Z,17.60
2019-02-09T14:01:52.403Z,13.13
2019-02-09T14:04:26.989Z,13.53
2019-02-09T14:06:57.880Z,12.67
2019-02-09T14:09:29.126Z,20.73
2019-02-09T14:12:00.121Z,23.50
2019-02-09T14:14:31.060Z,21.43
2019-02-09T14:17:01.963Z,22.07
2019-02-09T14:19:32.894Z,15.27
2019-02-09T14:22:03.905Z,17.83
2019-02-09T14:24:34.887Z,15.10
2019-02-09T14:27:05.774Z,13.80
2019-02-09T14:29:36.718Z,11.53
2019-02-09T14:32:07.693Z,8.90
2019-02-09T14:34:38.615Z,13.40
2019-02-09T14:37:09.512Z,8.60
2019-02-09T14:39:40.451Z,9.40
2019-02-09T14:42:11.353Z,10.57
2019-02-09T14:44:42.270Z,21.03
2019-02-09T14:47:13.186Z,29.83
2019-02-09T14:49:44.118Z,27.90
2019-02-09T14:52:15.028Z,12.87
2019-02-09T14:54:46.011Z,21.80
2019-02-09T14:57:16.926Z,29.43
2019-02-09T14:59:47.994Z,21.23
2019-02-09T15:02:18.836Z,25.07
2019-02-09T15:04:49.770Z,16.43
2019-02-09T15:07:20.680Z,22.70
2019-02-09T15:09:51.637Z,14.97
2019-02-09T15:12:22.540Z,22.67
2019-02-09T15:14:53.553Z,40.77
2019-02-09T15:17:24.465Z,22.93
2019-02-09T15:19:55.387Z,21.50
2019-02-09T15:22:26.291Z,40.43
2019-02-09T15:24:57.256Z,38.20
2019-02-09T15:27:28.147Z,44.80
2019-02-09T15:29:59.090Z,27.20
2019-02-09T15:32:30.433Z,23.20
2019-02-09T15:35:01.380Z,24.70
2019-02-09T15:37:32.286Z,30.43
2019-02-09T15:40:03.434Z,21.17
2019-02-09T15:42:34.334Z,25.87
2019-02-09T15:45:08.418Z,19.80
2019-02-09T15:47:39.330Z,18.27
2019-02-09T15:50:15.005Z,13.70
2019-02-09T15:52:46.430Z,23.10
2019-02-09T15:55:22.032Z,15.17
2019-02-09T15:57:52.949Z,16.33
2019-02-09T16:00:28.972Z,15.60
2019-02-09T16:03:00.775Z,19.63
2019-02-09T16:05:31.704Z,11.67
2019-02-09T16:08:02.938Z,10.40
2019-02-09T16:10:33.954Z,10.00
2019-02-09T16:13:07.765Z,9.20
2019-02-09T16:15:38.701Z,11.27
2019-02-09T16:18:09.601Z,20.33
2019-02-09T16:20:40.554Z,17.97
2019-02-09T16:23:11.451Z,23.67
2019-02-09T16:25:42.412Z,26.20
2019-02-09T16:28:13.420Z,29.33
2019-02-09T16:30:44.354Z,18.17
2019-02-09T16:33:15.256Z,15.57
2019-02-09T16:35:46.198Z,19.30
2019-02-09T16:38:17.098Z,16.77
2019-02-09T16:40:48.078Z,14.83
2019-02-09T16:43:19.050Z,30.37
2019-02-09T16:45:49.987Z,18.87
2019-02-09T16:48:20.892Z,19.67
2019-02-09T16:50:51.813Z,26.60
2019-02-09T16:53:22.718Z,16.53
2019-02-09T16:55:53.685Z,29.73
2019-02-09T16:58:24.593Z,22.70
2019-02-09T17:00:55.721Z,22.40
2019-02-09T17:03:26.621Z,24.43
2019-02-09T17:05:57.557Z,21.43
2019-02-09T17:08:28.458Z,27.17
2019-02-09T17:10:59.408Z,25.23
2019-02-09T17:13:30.312Z,20.33
2019-02-09T17:16:01.315Z,24.37
2019-02-09T17:18:32.220Z,21.50
2019-02-09T17:21:03.156Z,25.70
2019-02-09T17:23:34.065Z,29.20
2019-02-09T17:26:05.402Z,25.53
2019-02-09T17:28:36.299Z,24.60
2019-02-09T17:31:07.343Z,19.93
2019-02-09T17:33:38.255Z,40.03
2019-02-09T17:36:09.190Z,38.23
2019-02-09T17:38:40.097Z,30.60
2019-02-09T17:41:11.051Z,28.63
2019-02-09T17:43:42.039Z,25.00
2019-02-09T17:46:13.276Z,21.73
2019-02-09T17:48:44.183Z,16.20
2019-02-09T17:51:15.118Z,15.50
2019-02-09T17:53:46.015Z,21.30
2019-02-09T17:56:16.999Z,22.00
2019-02-09T17:58:47.903Z,24.17
2019-02-09T18:01:18.916Z,25.60
2019-02-09T18:03:49.825Z,17.60
2019-02-09T18:06:21.400Z,15.87
2019-02-09T18:08:52.300Z,13.53
2019-02-09T18:11:23.356Z,17.23
2019-02-09T18:13:54.253Z,15.33
2019-02-09T18:16:25.185Z,18.13
2019-02-09T18:18:56.089Z,21.23
2019-02-09T18:21:27.045Z,31.60
2019-02-09T18:23:57.952Z,58.70
2019-02-09T18:26:28.919Z,25.17
2019-02-09T18:28:59.833Z,152.83
2019-02-09T18:31:30.784Z,149.67
2019-02-09T18:34:01.689Z,98.50
2019-02-09T18:36:32.625Z,162.17
2019-02-09T18:39:06.615Z,32.83
2019-02-09T18:41:37.568Z,36.63
2019-02-09T18:44:08.475Z,42.43
2019-02-09T18:46:39.425Z,23.33
2019-02-09T18:49:10.396Z,21.77
2019-02-09T18:51:41.335Z,18.47
2019-02-09T18:54:12.226Z,17.60
2019-02-09T18:56:43.181Z,17.93
2019-02-09T18:59:14.086Z,14.80
2019-02-09T19:01:45.014Z,14.07
2019-02-09T19:04:15.925Z,19.50
2019-02-09T19:06:46.854Z,11.57
2019-02-09T19:09:18.005Z,21.03
2019-02-09T19:11:49.011Z,29.00
2019-02-09T19:14:20.412Z,14.77
2019-02-09T19:16:51.413Z,13.43
2019-02-09T19:19:22.315Z,20.67
2019-02-09T19:21:53.240Z,23.83
2019-02-09T19:24:24.153Z,16.40
2019-02-09T19:26:55.092Z,14.70
2019-02-09T19:29:25.984Z,9.73
2019-02-09T19:31:56.903Z,14.43
2019-02-09T19:34:27.802Z,12.33
2019-02-09T19:36:58.730Z,15.23
2019-02-09T19:39:29.615Z,9.63
2019-02-09T19:42:00.659Z,10.13
2019-02-09T19:44:31.557Z,12.70
2019-02-09T19:47:02.461Z,19.97
2019-02-09T19:49:33.358Z,18.23
2019-02-09T19:52:04.672Z,10.03
2019-02-09T19:54:35.578Z,18.30
2019-02-09T19:57:06.543Z,16.97
2019-02-09T19:59:37.458Z,31.37
2019-02-09T20:02:08.462Z,20.30
2019-02-09T20:04:39.372Z,11.90
2019-02-09T20:07:10.304Z,15.13
2019-02-09T20:09:41.212Z,20.47
2019-02-09T20:12:12.283Z,39.43
2019-02-09T20:14:43.187Z,21.23
2019-02-09T20:17:14.126Z,10.23
2019-02-09T20:19:45.025Z,11.03
2019-02-09T20:22:16.033Z,13.33
2019-02-09T20:24:46.940Z,14.27
2019-02-09T20:27:17.903Z,13.27
2019-02-09T20:29:48.799Z,15.87
2019-02-09T20:32:19.733Z,14.13
2019-02-09T20:34:50.725Z,25.87
2019-02-09T20:37:21.725Z,18.33
2019-02-09T20:39:52.630Z,15.53
2019-02-09T20:42:23.600Z,13.53
2019-02-09T20:44:54.494Z,10.67
2019-02-09T20:47:25.425Z,14.90
2019-02-09T20:49:56.315Z,13.70
2019-02-09T20:52:27.343Z,9.67
2019-02-09T20:54:58.205Z,18.77
2019-02-09T20:57:29.282Z,12.83
2019-02-09T21:00:00.269Z,26.93
2019-02-09T21:02:31.210Z,10.63
2019-02-09T21:05:02.128Z,12.07
2019-02-09T21:07:33.039Z,10.37
2019-02-09T21:10:10.422Z,11.73
2019-02-09T21:12:41.371Z,14.53
2019-02-09T21:15:17.929Z,8.93
2019-02-09T21:17:48.857Z,11.03
2019-02-09T21:20:20.164Z,39.90
2019-02-09T21:22:51.195Z,24.20
2019-02-09T21:25:30.072Z,16.67
2019-02-09T21:28:01.172Z,10.77
2019-02-09T21:30:32.238Z,15.70
2019-02-09T21:33:03.171Z,23.90
2019-02-09T21:35:34.069Z,15.93
2019-02-09T21:38:05.338Z,16.40
2019-02-09T21:40:36.607Z,15.40
2019-02-09T21:43:07.567Z,13.27
2019-02-09T21:45:45.003Z,17.63
2019-02-09T21:48:11.434Z,11.23
2019-02-09T21:50:42.327Z,14.80
2019-02-09T21:53:13.250Z,35.63
2019-02-09T21:55:44.149Z,40.43
2019-02-09T21:58:15.093Z,24.10
2019-02-09T22:00:46.506Z,21.60
2019-02-09T22:03:17.436Z,19.17
2019-02-09T22:05:51.941Z,17.43
2019-02-09T22:08:20.954Z,16.93
2019-02-09T22:10:52.620Z,13.13
2019-02-09T22:13:23.768Z,9.90
2019-02-09T22:15:54.652Z,13.57
2019-02-09T22:18:25.622Z,18.97
2019-02-09T22:20:56.565Z,12.63
2019-02-09T22:23:27.511Z,20.73
2019-02-09T22:25:58.408Z,12.27
2019-02-09T22:28:29.374Z,8.07
2019-02-09T22:31:00.207Z,6.50
2019-02-09T22:33:31.114Z,12.33
2019-02-09T22:36:02.016Z,7.10
2019-02-09T22:38:32.935Z,9.03
2019-02-09T22:41:03.902Z,6.70
2019-02-09T22:43:34.854Z,8.00
2019-02-09T22:46:06.673Z,5.93
2019-02-09T22:48:38.204Z,10.67
2019-02-09T22:51:09.092Z,9.00
2019-02-09T22:53:40.008Z,4.40
2019-02-09T22:56:10.909Z,12.07
2019-02-09T22:58:41.934Z,6.93
2019-02-09T23:01:36.654Z,4.73
2019-02-09T23:04:10.481Z,9.87
2019-02-09T23:06:52.736Z,6.93
2019-02-09T23:09:22.754Z,7.87
2019-02-09T23:11:54.692Z,9.97
2019-02-09T23:14:25.685Z,13.57
2019-02-09T23:16:56.557Z,13.50
2019-02-09T23:19:27.485Z,12.67
2019-02-09T23:21:58.373Z,9.07
2019-02-09T23:24:29.292Z,7.17
2019-02-09T23:27:00.261Z,5.47
2019-02-09T23:29:31.209Z,8.17
2019-02-09T23:32:02.096Z,6.80
2019-02-09T23:34:33.085Z,6.43
2019-02-09T23:37:03.984Z,6.67
2019-02-09T23:39:34.900Z,7.53
2019-02-09T23:42:05.794Z,7.10
2019-02-09T23:44:36.746Z,5.33
2019-02-09T23:47:07.638Z,7.20
2019-02-09T23:49:38.558Z,6.20
2019-02-09T23:52:09.512Z,5.70
2019-02-09T23:54:40.436Z,6.47
2019-02-09T23:57:11.334Z,9.50
2019-02-09T23:59:42.270Z,5.93
